sensor_id;sensor_type;location;lat;lon;timestamp;temperature;humidity
51825;DHT22;37879;52.986;6.282;2022-11-03T00:01:36;10.70;99.90
51825;DHT22;37879;52.986;6.282;2022-11-03T00:04:08;10.80;99.90
51825;DHT22;37879;52.986;6.282;2022-11-03T00:06:35;10.80;99.90
51825;DHT22;37879;52.986;6.282;2022-11-03T00:09:03;10.70;99.90
51825;DHT22;37879;52.986;6.282;2022-11-03T00:11:31;10.80;99.90
51825;DHT22;37879;52.986;6.282;2022-11-03T00:13:58;10.80;99.90
51825;DHT22;37879;52.986;6.282;2022-11-03T00:16:23;9.70;99.90
51825;DHT22;37879;52.986;6.282;2022-11-03T00:18:50;10.80;99.90
51825;DHT22;37879;52.986;6.282;2022-11-03T00:21:16;10.70;99.90
51825;DHT22;37879;52.986;6.282;2022-11-03T00:23:43;10.70;99.90
51825;DHT22;37879;52.986;6.282;2022-11-03T00:26:14;10.90;99.90
51825;DHT22;37879;52.986;6.282;2022-11-03T00:28:43;10.70;99.90
51825;DHT22;37879;52.986;6.282;2022-11-03T00:31:11;10.70;99.90
51825;DHT22;37879;52.986;6.282;2022-11-03T00:33:38;10.70;99.90
51825;DHT22;37879;52.986;6.282;2022-11-03T00:36:05;10.70;99.90
51825;DHT22;37879;52.986;6.282;2022-11-03T00:38:31;10.60;99.90
51825;DHT22;37879;52.986;6.282;2022-11-03T00:40:59;10.60;99.90
51825;DHT22;37879;52.986;6.282;2022-11-03T00:43:26;10.60;99.90
51825;DHT22;37879;52.986;6.282;2022-11-03T00:45:52;10.50;99.90
51825;DHT22;37879;52.986;6.282;2022-11-03T00:48:19;10.50;99.90
51825;DHT22;37879;52.986;6.282;2022-11-03T00:51:03;10.50;99.90
51825;DHT22;37879;52.986;6.282;2022-11-03T00:53:29;10.50;99.90
51825;DHT22;37879;52.986;6.282;2022-11-03T00:55:55;10.50;99.90
51825;DHT22;37879;52.986;6.282;2022-11-03T00:58:21;10.50;99.90
51825;DHT22;37879;52.986;6.282;2022-11-03T01:00:47;10.40;99.90
51825;DHT22;37879;52.986;6.282;2022-11-03T01:03:13;10.40;99.90
51825;DHT22;37879;52.986;6.282;2022-11-03T01:05:42;10.40;99.90
51825;DHT22;37879;52.986;6.282;2022-11-03T01:08:34;10.40;99.90
51825;DHT22;37879;52.986;6.282;2022-11-03T01:11:14;10.40;99.90
51825;DHT22;37879;52.986;6.282;2022-11-03T01:13:59;10.30;99.90
51825;DHT22;37879;52.986;6.282;2022-11-03T01:16:26;10.30;99.90
51825;DHT22;37879;52.986;6.282;2022-11-03T01:18:52;10.30;99.90
51825;DHT22;37879;52.986;6.282;2022-11-03T01:21:18;10.30;99.90
51825;DHT22;37879;52.986;6.282;2022-11-03T01:23:44;10.30;99.90
51825;DHT22;37879;52.986;6.282;2022-11-03T01:26:11;10.30;99.90
51825;DHT22;37879;52.986;6.282;2022-11-03T01:28:40;10.40;99.90
51825;DHT22;37879;52.986;6.282;2022-11-03T01:31:08;10.20;99.90
51825;DHT22;37879;52.986;6.282;2022-11-03T01:33:34;10.20;99.90
51825;DHT22;37879;52.986;6.282;2022-11-03T01:36:00;10.20;99.90
51825;DHT22;37879;52.986;6.282;2022-11-03T01:38:26;10.20;99.90
51825;DHT22;37879;52.986;6.282;2022-11-03T01:40:52;10.20;99.90
51825;DHT22;37879;52.986;6.282;2022-11-03T01:43:20;10.20;99.90
51825;DHT22;37879;52.986;6.282;2022-11-03T01:45:48;10.20;99.90
51825;DHT22;37879;52.986;6.282;2022-11-03T01:48:16;10.30;99.90
51825;DHT22;37879;52.986;6.282;2022-11-03T01:50:44;10.10;99.90
51825;DHT22;37879;52.986;6.282;2022-11-03T01:53:11;10.00;99.90
51825;DHT22;37879;52.986;6.282;2022-11-03T01:55:39;10.00;99.90
51825;DHT22;37879;52.986;6.282;2022-11-03T01:58:09;9.90;99.90
51825;DHT22;37879;52.986;6.282;2022-11-03T02:00:37;9.90;99.90
51825;DHT22;37879;52.986;6.282;2022-11-03T02:03:04;9.90;99.90
51825;DHT22;37879;52.986;6.282;2022-11-03T02:05:30;9.90;99.90
51825;DHT22;37879;52.986;6.282;2022-11-03T02:10:23;10.00;99.90
51825;DHT22;37879;52.986;6.282;2022-11-03T02:12:49;10.00;99.90
51825;DHT22;37879;52.986;6.282;2022-11-03T02:15:16;10.00;99.90
51825;DHT22;37879;52.986;6.282;2022-11-03T02:17:45;10.00;99.90
51825;DHT22;37879;52.986;6.282;2022-11-03T02:20:15;9.90;99.90
51825;DHT22;37879;52.986;6.282;2022-11-03T02:23:19;9.90;99.90
51825;DHT22;37879;52.986;6.282;2022-11-03T02:25:46;9.90;99.90
51825;DHT22;37879;52.986;6.282;2022-11-03T02:28:15;9.80;99.90
51825;DHT22;37879;52.986;6.282;2022-11-03T02:30:56;9.80;99.90
51825;DHT22;37879;52.986;6.282;2022-11-03T02:33:52;9.80;99.90
51825;DHT22;37879;52.986;6.282;2022-11-03T02:36:28;9.80;99.90
51825;DHT22;37879;52.986;6.282;2022-11-03T02:41:21;9.80;99.90
51825;DHT22;37879;52.986;6.282;2022-11-03T02:43:49;9.70;99.90
51825;DHT22;37879;52.986;6.282;2022-11-03T02:46:16;9.80;99.90
51825;DHT22;37879;52.986;6.282;2022-11-03T02:48:42;9.80;99.90
51825;DHT22;37879;52.986;6.282;2022-11-03T02:51:08;9.80;99.90
51825;DHT22;37879;52.986;6.282;2022-11-03T02:53:43;9.80;99.90
51825;DHT22;37879;52.986;6.282;2022-11-03T02:56:13;9.80;99.90
51825;DHT22;37879;52.986;6.282;2022-11-03T03:01:23;9.80;99.90
51825;DHT22;37879;52.986;6.282;2022-11-03T03:03:58;9.80;99.90
51825;DHT22;37879;52.986;6.282;2022-11-03T03:06:34;9.70;99.90
51825;DHT22;37879;52.986;6.282;2022-11-03T03:09:05;9.80;99.90
51825;DHT22;37879;52.986;6.282;2022-11-03T03:11:33;9.80;99.90
51825;DHT22;37879;52.986;6.282;2022-11-03T03:14:07;9.90;99.90
51825;DHT22;37879;52.986;6.282;2022-11-03T03:16:46;9.90;99.90
51825;DHT22;37879;52.986;6.282;2022-11-03T03:20:00;9.90;99.90
51825;DHT22;37879;52.986;6.282;2022-11-03T03:25:25;9.80;99.90
51825;DHT22;37879;52.986;6.282;2022-11-03T03:28:15;9.80;99.90
51825;DHT22;37879;52.986;6.282;2022-11-03T03:30:44;9.90;99.90
51825;DHT22;37879;52.986;6.282;2022-11-03T03:33:12;9.90;99.90
51825;DHT22;37879;52.986;6.282;2022-11-03T03:35:41;9.90;99.90
51825;DHT22;37879;52.986;6.282;2022-11-03T03:38:15;9.80;99.90
51825;DHT22;37879;52.986;6.282;2022-11-03T03:40:44;9.80;99.90
51825;DHT22;37879;52.986;6.282;2022-11-03T03:43:12;9.80;99.90
51825;DHT22;37879;52.986;6.282;2022-11-03T03:45:42;9.80;99.90
51825;DHT22;37879;52.986;6.282;2022-11-03T03:48:08;9.80;99.90
51825;DHT22;37879;52.986;6.282;2022-11-03T03:50:37;9.80;99.90
51825;DHT22;37879;52.986;6.282;2022-11-03T03:53:05;9.70;99.90
51825;DHT22;37879;52.986;6.282;2022-11-03T03:55:40;9.70;99.90
51825;DHT22;37879;52.986;6.282;2022-11-03T03:58:07;9.70;99.90
51825;DHT22;37879;52.986;6.282;2022-11-03T04:00:34;9.70;99.90
51825;DHT22;37879;52.986;6.282;2022-11-03T04:03:04;9.70;99.90
51825;DHT22;37879;52.986;6.282;2022-11-03T04:05:30;9.80;99.90
51825;DHT22;37879;52.986;6.282;2022-11-03T04:07:56;9.70;99.90
51825;DHT22;37879;52.986;6.282;2022-11-03T04:10:23;9.70;99.90
51825;DHT22;37879;52.986;6.282;2022-11-03T04:12:50;9.80;99.90
51825;DHT22;37879;52.986;6.282;2022-11-03T04:15:34;9.70;99.90
51825;DHT22;37879;52.986;6.282;2022-11-03T04:18:20;9.80;99.90
51825;DHT22;37879;52.986;6.282;2022-11-03T04:21:06;9.90;99.90
51825;DHT22;37879;52.986;6.282;2022-11-03T04:23:51;9.90;99.90
51825;DHT22;37879;52.986;6.282;2022-11-03T04:26:18;10.00;99.90
51825;DHT22;37879;52.986;6.282;2022-11-03T04:28:48;10.10;99.90
51825;DHT22;37879;52.986;6.282;2022-11-03T04:31:18;10.10;99.90
51825;DHT22;37879;52.986;6.282;2022-11-03T04:33:45;10.10;99.90
51825;DHT22;37879;52.986;6.282;2022-11-03T04:36:23;10.20;99.90
51825;DHT22;37879;52.986;6.282;2022-11-03T04:38:50;10.20;99.90
51825;DHT22;37879;52.986;6.282;2022-11-03T04:41:31;10.20;99.90
51825;DHT22;37879;52.986;6.282;2022-11-03T04:43:57;10.30;99.90
51825;DHT22;37879;52.986;6.282;2022-11-03T04:46:26;10.30;99.90
51825;DHT22;37879;52.986;6.282;2022-11-03T04:48:52;10.40;99.90
51825;DHT22;37879;52.986;6.282;2022-11-03T04:51:21;10.40;99.90
51825;DHT22;37879;52.986;6.282;2022-11-03T04:53:53;10.50;99.90
51825;DHT22;37879;52.986;6.282;2022-11-03T04:56:22;10.40;99.90
51825;DHT22;37879;52.986;6.282;2022-11-03T04:58:48;10.40;99.90
51825;DHT22;37879;52.986;6.282;2022-11-03T05:01:16;10.40;99.90
51825;DHT22;37879;52.986;6.282;2022-11-03T05:03:44;10.40;99.90
51825;DHT22;37879;52.986;6.282;2022-11-03T05:06:21;10.40;99.90
51825;DHT22;37879;52.986;6.282;2022-11-03T05:08:51;10.40;99.90
51825;DHT22;37879;52.986;6.282;2022-11-03T05:13:49;10.40;99.90
51825;DHT22;37879;52.986;6.282;2022-11-03T05:16:16;10.30;99.90
51825;DHT22;37879;52.986;6.282;2022-11-03T05:18:43;10.30;99.90
51825;DHT22;37879;52.986;6.282;2022-11-03T05:21:13;10.30;99.90
51825;DHT22;37879;52.986;6.282;2022-11-03T05:23:44;10.20;99.90
51825;DHT22;37879;52.986;6.282;2022-11-03T05:26:21;10.20;99.90
51825;DHT22;37879;52.986;6.282;2022-11-03T05:28:55;10.30;99.90
51825;DHT22;37879;52.986;6.282;2022-11-03T05:31:33;10.20;99.90
51825;DHT22;37879;52.986;6.282;2022-11-03T05:34:01;10.30;99.90
51825;DHT22;37879;52.986;6.282;2022-11-03T05:36:32;10.20;99.90
51825;DHT22;37879;52.986;6.282;2022-11-03T05:41:41;10.10;99.90
51825;DHT22;37879;52.986;6.282;2022-11-03T05:46:54;10.10;99.90
51825;DHT22;37879;52.986;6.282;2022-11-03T05:49:21;10.10;99.90
51825;DHT22;37879;52.986;6.282;2022-11-03T05:51:47;10.10;99.90
51825;DHT22;37879;52.986;6.282;2022-11-03T05:54:21;10.00;99.90
51825;DHT22;37879;52.986;6.282;2022-11-03T05:56:47;10.00;99.90
51825;DHT22;37879;52.986;6.282;2022-11-03T05:59:19;10.00;99.90
51825;DHT22;37879;52.986;6.282;2022-11-03T06:01:45;10.10;99.90
51825;DHT22;37879;52.986;6.282;2022-11-03T06:04:30;10.00;99.90
51825;DHT22;37879;52.986;6.282;2022-11-03T06:07:03;10.10;99.90
51825;DHT22;37879;52.986;6.282;2022-11-03T06:09:32;10.00;99.90
51825;DHT22;37879;52.986;6.282;2022-11-03T06:12:00;10.00;99.90
51825;DHT22;37879;52.986;6.282;2022-11-03T06:14:27;10.00;99.90
51825;DHT22;37879;52.986;6.282;2022-11-03T06:17:01;10.00;99.90
51825;DHT22;37879;52.986;6.282;2022-11-03T06:19:31;10.00;99.90
51825;DHT22;37879;52.986;6.282;2022-11-03T06:22:20;10.10;99.90
51825;DHT22;37879;52.986;6.282;2022-11-03T06:24:46;10.10;99.90
51825;DHT22;37879;52.986;6.282;2022-11-03T06:27:18;10.10;99.90
51825;DHT22;37879;52.986;6.282;2022-11-03T06:29:52;10.10;99.90
51825;DHT22;37879;52.986;6.282;2022-11-03T06:32:18;10.10;99.90
51825;DHT22;37879;52.986;6.282;2022-11-03T06:34:52;10.10;99.90
51825;DHT22;37879;52.986;6.282;2022-11-03T06:37:24;10.10;99.90
51825;DHT22;37879;52.986;6.282;2022-11-03T06:39:56;10.10;99.90
51825;DHT22;37879;52.986;6.282;2022-11-03T06:42:25;10.30;99.90
51825;DHT22;37879;52.986;6.282;2022-11-03T06:44:52;10.20;99.90
51825;DHT22;37879;52.986;6.282;2022-11-03T06:47:23;10.10;99.90
51825;DHT22;37879;52.986;6.282;2022-11-03T06:49:57;10.20;99.90
51825;DHT22;37879;52.986;6.282;2022-11-03T06:52:29;10.20;99.90
51825;DHT22;37879;52.986;6.282;2022-11-03T06:57:42;10.20;99.90
51825;DHT22;37879;52.986;6.282;2022-11-03T07:00:25;10.20;99.90
51825;DHT22;37879;52.986;6.282;2022-11-03T07:05:35;10.30;99.90
51825;DHT22;37879;52.986;6.282;2022-11-03T07:10:41;10.30;99.90
51825;DHT22;37879;52.986;6.282;2022-11-03T07:13:14;10.50;99.90
51825;DHT22;37879;52.986;6.282;2022-11-03T07:15:41;10.40;99.90
51825;DHT22;37879;52.986;6.282;2022-11-03T07:18:40;10.40;99.90
51825;DHT22;37879;52.986;6.282;2022-11-03T07:21:36;10.50;99.90
51825;DHT22;37879;52.986;6.282;2022-11-03T07:24:18;10.50;99.90
51825;DHT22;37879;52.986;6.282;2022-11-03T07:26:46;10.60;99.90
51825;DHT22;37879;52.986;6.282;2022-11-03T07:29:20;10.60;99.90
51825;DHT22;37879;52.986;6.282;2022-11-03T07:31:48;10.60;99.90
51825;DHT22;37879;52.986;6.282;2022-11-03T07:34:21;10.60;99.90
51825;DHT22;37879;52.986;6.282;2022-11-03T07:36:48;10.70;99.90
51825;DHT22;37879;52.986;6.282;2022-11-03T07:39:18;10.70;99.90
51825;DHT22;37879;52.986;6.282;2022-11-03T07:41:45;10.80;99.90
51825;DHT22;37879;52.986;6.282;2022-11-03T07:44:19;10.80;99.90
51825;DHT22;37879;52.986;6.282;2022-11-03T07:46:46;10.80;99.90
51825;DHT22;37879;52.986;6.282;2022-11-03T07:49:30;10.90;99.90
51825;DHT22;37879;52.986;6.282;2022-11-03T07:51:58;10.90;99.90
51825;DHT22;37879;52.986;6.282;2022-11-03T07:54:27;11.00;99.90
51825;DHT22;37879;52.986;6.282;2022-11-03T07:57:19;11.00;99.90
51825;DHT22;37879;52.986;6.282;2022-11-03T07:59:48;11.00;99.90
51825;DHT22;37879;52.986;6.282;2022-11-03T08:02:32;11.10;99.90
51825;DHT22;37879;52.986;6.282;2022-11-03T08:04:59;11.10;99.90
51825;DHT22;37879;52.986;6.282;2022-11-03T08:07:25;11.10;99.90
51825;DHT22;37879;52.986;6.282;2022-11-03T08:09:52;11.20;99.90
51825;DHT22;37879;52.986;6.282;2022-11-03T08:12:18;11.10;99.90
51825;DHT22;37879;52.986;6.282;2022-11-03T08:14:44;11.20;99.90
51825;DHT22;37879;52.986;6.282;2022-11-03T08:17:10;11.30;99.90
51825;DHT22;37879;52.986;6.282;2022-11-03T08:19:35;11.40;99.90
51825;DHT22;37879;52.986;6.282;2022-11-03T08:22:01;11.40;99.90
51825;DHT22;37879;52.986;6.282;2022-11-03T08:24:26;11.50;99.90
51825;DHT22;37879;52.986;6.282;2022-11-03T08:26:52;11.50;99.90
51825;DHT22;37879;52.986;6.282;2022-11-03T08:29:18;11.50;99.90
51825;DHT22;37879;52.986;6.282;2022-11-03T08:31:44;11.60;99.90
51825;DHT22;37879;52.986;6.282;2022-11-03T08:34:10;11.60;99.90
51825;DHT22;37879;52.986;6.282;2022-11-03T08:36:36;11.60;99.90
51825;DHT22;37879;52.986;6.282;2022-11-03T08:39:02;11.70;99.90
51825;DHT22;37879;52.986;6.282;2022-11-03T08:41:28;11.60;99.90
51825;DHT22;37879;52.986;6.282;2022-11-03T08:43:54;11.70;99.90
51825;DHT22;37879;52.986;6.282;2022-11-03T08:46:20;11.70;99.90
51825;DHT22;37879;52.986;6.282;2022-11-03T08:48:45;11.70;99.90
51825;DHT22;37879;52.986;6.282;2022-11-03T08:51:12;11.80;99.90
51825;DHT22;37879;52.986;6.282;2022-11-03T08:53:39;11.80;99.90
51825;DHT22;37879;52.986;6.282;2022-11-03T08:56:05;11.90;99.90
51825;DHT22;37879;52.986;6.282;2022-11-03T08:58:31;12.00;99.90
51825;DHT22;37879;52.986;6.282;2022-11-03T09:00:57;12.00;99.90
51825;DHT22;37879;52.986;6.282;2022-11-03T09:03:23;12.10;99.90
51825;DHT22;37879;52.986;6.282;2022-11-03T09:05:49;12.10;99.90
51825;DHT22;37879;52.986;6.282;2022-11-03T09:08:15;12.20;99.90
51825;DHT22;37879;52.986;6.282;2022-11-03T09:10:41;12.20;99.90
51825;DHT22;37879;52.986;6.282;2022-11-03T09:13:08;12.20;99.90
51825;DHT22;37879;52.986;6.282;2022-11-03T09:15:34;12.30;99.90
51825;DHT22;37879;52.986;6.282;2022-11-03T09:17:59;12.30;99.90
51825;DHT22;37879;52.986;6.282;2022-11-03T09:20:25;12.30;99.90
51825;DHT22;37879;52.986;6.282;2022-11-03T09:22:51;12.40;99.90
51825;DHT22;37879;52.986;6.282;2022-11-03T09:25:18;12.40;99.90
51825;DHT22;37879;52.986;6.282;2022-11-03T09:27:44;12.50;99.90
51825;DHT22;37879;52.986;6.282;2022-11-03T09:30:10;12.60;99.90
51825;DHT22;37879;52.986;6.282;2022-11-03T09:32:36;12.60;99.90
51825;DHT22;37879;52.986;6.282;2022-11-03T09:35:03;12.70;99.90
51825;DHT22;37879;52.986;6.282;2022-11-03T09:37:29;12.80;99.90
51825;DHT22;37879;52.986;6.282;2022-11-03T09:39:54;12.90;99.90
51825;DHT22;37879;52.986;6.282;2022-11-03T09:42:20;12.90;99.90
51825;DHT22;37879;52.986;6.282;2022-11-03T09:44:46;12.90;99.90
51825;DHT22;37879;52.986;6.282;2022-11-03T09:47:24;13.00;99.90
51825;DHT22;37879;52.986;6.282;2022-11-03T09:49:52;13.10;99.90
51825;DHT22;37879;52.986;6.282;2022-11-03T09:52:21;13.20;99.90
51825;DHT22;37879;52.986;6.282;2022-11-03T09:54:51;13.30;99.90
51825;DHT22;37879;52.986;6.282;2022-11-03T09:57:17;13.30;99.90
51825;DHT22;37879;52.986;6.282;2022-11-03T09:59:46;13.40;99.90
51825;DHT22;37879;52.986;6.282;2022-11-03T10:04:41;13.40;99.90
51825;DHT22;37879;52.986;6.282;2022-11-03T10:07:07;13.50;99.90
51825;DHT22;37879;52.986;6.282;2022-11-03T10:09:33;13.50;99.90
51825;DHT22;37879;52.986;6.282;2022-11-03T10:11:59;13.50;99.90
51825;DHT22;37879;52.986;6.282;2022-11-03T10:14:25;13.50;99.90
51825;DHT22;37879;52.986;6.282;2022-11-03T10:16:56;13.50;99.90
51825;DHT22;37879;52.986;6.282;2022-11-03T10:19:24;13.60;99.90
51825;DHT22;37879;52.986;6.282;2022-11-03T10:21:50;13.60;99.90
51825;DHT22;37879;52.986;6.282;2022-11-03T10:24:17;13.60;99.90
51825;DHT22;37879;52.986;6.282;2022-11-03T10:26:48;13.70;99.90
51825;DHT22;37879;52.986;6.282;2022-11-03T10:29:25;13.70;99.90
51825;DHT22;37879;52.986;6.282;2022-11-03T10:31:52;13.70;99.90
51825;DHT22;37879;52.986;6.282;2022-11-03T10:39:37;14.00;99.90
51825;DHT22;37879;52.986;6.282;2022-11-03T10:42:03;14.10;99.90
51825;DHT22;37879;52.986;6.282;2022-11-03T10:44:29;14.10;99.90
51825;DHT22;37879;52.986;6.282;2022-11-03T10:47:03;14.20;99.90
51825;DHT22;37879;52.986;6.282;2022-11-03T10:49:33;14.20;99.90
51825;DHT22;37879;52.986;6.282;2022-11-03T10:52:25;14.30;99.90
51825;DHT22;37879;52.986;6.282;2022-11-03T10:54:53;14.30;99.90
51825;DHT22;37879;52.986;6.282;2022-11-03T10:57:21;14.30;99.90
51825;DHT22;37879;52.986;6.282;2022-11-03T10:59:48;14.40;99.90
51825;DHT22;37879;52.986;6.282;2022-11-03T11:02:23;14.40;99.90
51825;DHT22;37879;52.986;6.282;2022-11-03T11:04:57;14.40;99.90
51825;DHT22;37879;52.986;6.282;2022-11-03T11:07:29;14.50;99.90
51825;DHT22;37879;52.986;6.282;2022-11-03T11:10:16;14.50;99.90
51825;DHT22;37879;52.986;6.282;2022-11-03T11:18:04;14.70;99.90
51825;DHT22;37879;52.986;6.282;2022-11-03T11:31:38;14.90;99.90
51825;DHT22;37879;52.986;6.282;2022-11-03T11:42:19;14.70;99.90
51825;DHT22;37879;52.986;6.282;2022-11-03T11:44:51;14.70;99.90
51825;DHT22;37879;52.986;6.282;2022-11-03T11:58:04;14.90;99.90
51825;DHT22;37879;52.986;6.282;2022-11-03T12:00:33;14.90;99.90
51825;DHT22;37879;52.986;6.282;2022-11-03T12:03:01;14.90;99.90
51825;DHT22;37879;52.986;6.282;2022-11-03T12:05:32;14.90;99.90
51825;DHT22;37879;52.986;6.282;2022-11-03T12:07:59;14.90;99.90
51825;DHT22;37879;52.986;6.282;2022-11-03T12:10:29;14.90;99.90
51825;DHT22;37879;52.986;6.282;2022-11-03T12:12:59;14.90;99.90
51825;DHT22;37879;52.986;6.282;2022-11-03T12:15:48;14.90;99.90
51825;DHT22;37879;52.986;6.282;2022-11-03T12:18:40;14.80;99.90
51825;DHT22;37879;52.986;6.282;2022-11-03T12:21:10;14.80;99.90
51825;DHT22;37879;52.986;6.282;2022-11-03T12:23:46;14.80;99.90
51825;DHT22;37879;52.986;6.282;2022-11-03T12:29:01;14.80;99.90
51825;DHT22;37879;52.986;6.282;2022-11-03T12:31:29;14.80;99.90
51825;DHT22;37879;52.986;6.282;2022-11-03T12:33:55;14.80;99.90
51825;DHT22;37879;52.986;6.282;2022-11-03T12:36:21;14.90;99.90
51825;DHT22;37879;52.986;6.282;2022-11-03T12:38:46;14.90;99.90
51825;DHT22;37879;52.986;6.282;2022-11-03T12:41:12;14.90;99.90
51825;DHT22;37879;52.986;6.282;2022-11-03T12:43:51;14.90;99.90
51825;DHT22;37879;52.986;6.282;2022-11-03T12:46:18;14.90;99.90
51825;DHT22;37879;52.986;6.282;2022-11-03T12:48:45;15.00;99.90
51825;DHT22;37879;52.986;6.282;2022-11-03T12:51:14;15.00;99.90
51825;DHT22;37879;52.986;6.282;2022-11-03T12:53:40;15.10;99.90
51825;DHT22;37879;52.986;6.282;2022-11-03T12:56:07;15.10;99.90
51825;DHT22;37879;52.986;6.282;2022-11-03T12:58:33;15.10;99.90
51825;DHT22;37879;52.986;6.282;2022-11-03T13:01:00;15.10;99.90
51825;DHT22;37879;52.986;6.282;2022-11-03T13:03:26;15.10;99.90
51825;DHT22;37879;52.986;6.282;2022-11-03T13:05:52;15.10;99.90
51825;DHT22;37879;52.986;6.282;2022-11-03T13:08:18;15.20;99.90
51825;DHT22;37879;52.986;6.282;2022-11-03T13:10:43;15.20;99.90
51825;DHT22;37879;52.986;6.282;2022-11-03T13:13:09;15.20;99.90
51825;DHT22;37879;52.986;6.282;2022-11-03T13:15:35;15.10;99.90
51825;DHT22;37879;52.986;6.282;2022-11-03T13:18:02;15.10;99.90
51825;DHT22;37879;52.986;6.282;2022-11-03T13:20:31;15.00;99.90
51825;DHT22;37879;52.986;6.282;2022-11-03T13:22:56;15.00;99.90
51825;DHT22;37879;52.986;6.282;2022-11-03T13:25:22;15.00;99.90
51825;DHT22;37879;52.986;6.282;2022-11-03T13:27:52;15.00;99.90
51825;DHT22;37879;52.986;6.282;2022-11-03T13:30:20;14.90;99.90
51825;DHT22;37879;52.986;6.282;2022-11-03T13:32:46;14.90;99.90
51825;DHT22;37879;52.986;6.282;2022-11-03T13:35:12;14.90;99.90
51825;DHT22;37879;52.986;6.282;2022-11-03T13:37:38;14.90;99.90
51825;DHT22;37879;52.986;6.282;2022-11-03T13:40:05;14.90;99.90
51825;DHT22;37879;52.986;6.282;2022-11-03T13:42:31;15.00;99.90
51825;DHT22;37879;52.986;6.282;2022-11-03T13:44:56;15.00;99.90
51825;DHT22;37879;52.986;6.282;2022-11-03T13:47:23;15.00;99.90
51825;DHT22;37879;52.986;6.282;2022-11-03T13:49:48;15.00;99.90
51825;DHT22;37879;52.986;6.282;2022-11-03T13:52:18;15.00;99.90
51825;DHT22;37879;52.986;6.282;2022-11-03T13:54:44;15.00;99.90
51825;DHT22;37879;52.986;6.282;2022-11-03T13:57:09;15.00;99.90
51825;DHT22;37879;52.986;6.282;2022-11-03T13:59:35;15.00;99.90
51825;DHT22;37879;52.986;6.282;2022-11-03T14:02:01;15.00;99.90
51825;DHT22;37879;52.986;6.282;2022-11-03T14:04:27;14.90;99.90
51825;DHT22;37879;52.986;6.282;2022-11-03T14:06:53;15.00;99.90
51825;DHT22;37879;52.986;6.282;2022-11-03T14:09:19;15.00;99.90
51825;DHT22;37879;52.986;6.282;2022-11-03T14:11:44;15.00;99.90
51825;DHT22;37879;52.986;6.282;2022-11-03T14:14:29;15.00;99.90
51825;DHT22;37879;52.986;6.282;2022-11-03T14:16:54;15.00;99.90
51825;DHT22;37879;52.986;6.282;2022-11-03T14:19:20;15.00;99.90
51825;DHT22;37879;52.986;6.282;2022-11-03T14:21:46;14.90;99.90
51825;DHT22;37879;52.986;6.282;2022-11-03T14:24:11;14.80;99.90
51825;DHT22;37879;52.986;6.282;2022-11-03T14:26:37;14.80;99.90
51825;DHT22;37879;52.986;6.282;2022-11-03T14:29:03;14.70;99.90
51825;DHT22;37879;52.986;6.282;2022-11-03T14:31:29;14.70;99.90
51825;DHT22;37879;52.986;6.282;2022-11-03T14:33:54;14.60;99.90
51825;DHT22;37879;52.986;6.282;2022-11-03T14:36:20;14.60;99.90
51825;DHT22;37879;52.986;6.282;2022-11-03T14:38:46;14.60;99.90
51825;DHT22;37879;52.986;6.282;2022-11-03T14:41:11;14.60;99.90
51825;DHT22;37879;52.986;6.282;2022-11-03T14:43:55;14.60;99.90
51825;DHT22;37879;52.986;6.282;2022-11-03T14:46:21;14.70;99.90
51825;DHT22;37879;52.986;6.282;2022-11-03T14:48:46;14.70;99.90
51825;DHT22;37879;52.986;6.282;2022-11-03T14:51:12;14.80;99.90
51825;DHT22;37879;52.986;6.282;2022-11-03T14:53:38;14.80;99.90
51825;DHT22;37879;52.986;6.282;2022-11-03T14:56:04;14.80;99.90
51825;DHT22;37879;52.986;6.282;2022-11-03T14:58:29;14.80;99.90
51825;DHT22;37879;52.986;6.282;2022-11-03T15:00:55;14.70;99.90
51825;DHT22;37879;52.986;6.282;2022-11-03T15:03:21;14.70;99.90
51825;DHT22;37879;52.986;6.282;2022-11-03T15:05:46;14.70;99.90
51825;DHT22;37879;52.986;6.282;2022-11-03T15:08:14;14.60;99.90
51825;DHT22;37879;52.986;6.282;2022-11-03T15:10:40;14.60;99.90
51825;DHT22;37879;52.986;6.282;2022-11-03T15:13:06;14.50;99.90
51825;DHT22;37879;52.986;6.282;2022-11-03T15:15:32;14.50;99.90
51825;DHT22;37879;52.986;6.282;2022-11-03T15:18:03;14.40;99.90
51825;DHT22;37879;52.986;6.282;2022-11-03T15:20:29;14.40;99.90
51825;DHT22;37879;52.986;6.282;2022-11-03T15:22:55;14.40;99.90
51825;DHT22;37879;52.986;6.282;2022-11-03T15:25:21;14.30;99.90
51825;DHT22;37879;52.986;6.282;2022-11-03T15:27:46;14.30;99.90
51825;DHT22;37879;52.986;6.282;2022-11-03T15:30:12;14.30;99.90
51825;DHT22;37879;52.986;6.282;2022-11-03T15:32:39;14.20;99.90
51825;DHT22;37879;52.986;6.282;2022-11-03T15:35:05;14.20;99.90
51825;DHT22;37879;52.986;6.282;2022-11-03T15:37:31;14.20;99.90
51825;DHT22;37879;52.986;6.282;2022-11-03T15:39:56;14.20;99.90
51825;DHT22;37879;52.986;6.282;2022-11-03T15:42:22;14.20;99.90
51825;DHT22;37879;52.986;6.282;2022-11-03T15:44:48;14.20;99.90
51825;DHT22;37879;52.986;6.282;2022-11-03T15:47:13;14.20;99.90
51825;DHT22;37879;52.986;6.282;2022-11-03T15:49:39;14.20;99.90
51825;DHT22;37879;52.986;6.282;2022-11-03T15:52:04;14.20;99.90
51825;DHT22;37879;52.986;6.282;2022-11-03T15:54:30;14.10;99.90
51825;DHT22;37879;52.986;6.282;2022-11-03T15:56:56;14.10;99.90
51825;DHT22;37879;52.986;6.282;2022-11-03T15:59:22;14.10;99.90
51825;DHT22;37879;52.986;6.282;2022-11-03T16:01:48;14.00;99.90
51825;DHT22;37879;52.986;6.282;2022-11-03T16:04:13;14.00;99.90
51825;DHT22;37879;52.986;6.282;2022-11-03T16:06:40;14.00;99.90
51825;DHT22;37879;52.986;6.282;2022-11-03T16:09:06;14.10;99.90
51825;DHT22;37879;52.986;6.282;2022-11-03T16:11:32;14.10;99.90
51825;DHT22;37879;52.986;6.282;2022-11-03T16:13:58;14.00;99.90
51825;DHT22;37879;52.986;6.282;2022-11-03T16:16:24;14.00;99.90
51825;DHT22;37879;52.986;6.282;2022-11-03T16:18:50;14.00;99.90
51825;DHT22;37879;52.986;6.282;2022-11-03T16:21:16;14.00;99.90
51825;DHT22;37879;52.986;6.282;2022-11-03T16:23:41;14.00;99.90
51825;DHT22;37879;52.986;6.282;2022-11-03T16:26:07;14.00;99.90
51825;DHT22;37879;52.986;6.282;2022-11-03T16:28:34;14.00;99.90
51825;DHT22;37879;52.986;6.282;2022-11-03T16:30:59;14.00;99.90
51825;DHT22;37879;52.986;6.282;2022-11-03T16:33:25;14.30;99.90
51825;DHT22;37879;52.986;6.282;2022-11-03T16:35:51;14.00;99.90
51825;DHT22;37879;52.986;6.282;2022-11-03T16:38:17;14.00;99.90
51825;DHT22;37879;52.986;6.282;2022-11-03T16:40:43;14.00;99.90
51825;DHT22;37879;52.986;6.282;2022-11-03T16:43:09;14.00;99.90
51825;DHT22;37879;52.986;6.282;2022-11-03T16:45:35;14.00;99.90
51825;DHT22;37879;52.986;6.282;2022-11-03T16:48:00;14.00;99.90
51825;DHT22;37879;52.986;6.282;2022-11-03T16:50:26;13.90;99.90
51825;DHT22;37879;52.986;6.282;2022-11-03T16:52:52;13.90;99.90
51825;DHT22;37879;52.986;6.282;2022-11-03T16:55:18;13.90;99.90
51825;DHT22;37879;52.986;6.282;2022-11-03T16:57:44;13.90;99.90